createdAt,value
2022-10-21T00:02:39.129Z,11.90
2022-10-21T00:07:40.799Z,11.52
2022-10-21T00:12:42.405Z,9.60
2022-10-21T00:17:43.915Z,13.90
2022-10-21T00:22:45.610Z,11.60
2022-10-21T00:27:47.119Z,10.98
2022-10-21T00:32:48.590Z,16.23
2022-10-21T00:37:50.070Z,15.57
2022-10-21T00:42:51.494Z,16.92
2022-10-21T00:48:02.454Z,13.98
2022-10-21T00:53:06.700Z,16.27
2022-10-21T00:58:08.424Z,14.63
2022-10-21T01:03:09.911Z,11.73
2022-10-21T01:08:11.427Z,12.55
2022-10-21T01:13:18.806Z,13.98
2022-10-21T01:18:53.351Z,14.48
2022-10-21T01:24:39.987Z,14.88
2022-10-21T01:29:56.859Z,15.10
2022-10-21T01:35:11.314Z,14.30
2022-10-21T01:40:28.739Z,9.60
2022-10-21T01:45:36.200Z,13.20
2022-10-21T01:50:44.327Z,9.77
2022-10-21T01:55:49.175Z,15.05
2022-10-21T02:00:53.815Z,12.77
2022-10-21T02:05:55.381Z,11.57
2022-10-21T02:11:01.881Z,11.45
2022-10-21T02:16:09.095Z,8.80
2022-10-21T02:21:17.691Z,12.20
2022-10-21T02:26:20.636Z,10.20
2022-10-21T02:31:22.030Z,6.80
2022-10-21T02:36:38.647Z,10.45
2022-10-21T02:41:41.937Z,8.95
2022-10-21T02:46:46.654Z,6.60
2022-10-21T02:51:48.099Z,10.07
2022-10-21T02:56:49.631Z,10.32
2022-10-21T03:01:51.200Z,11.93
2022-10-21T03:06:52.887Z,6.57
2022-10-21T03:11:54.337Z,10.98
2022-10-21T03:16:55.846Z,8.70
2022-10-21T03:21:57.334Z,9.57
2022-10-21T03:26:58.852Z,7.18
2022-10-21T03:32:00.295Z,11.10
2022-10-21T03:37:01.851Z,10.02
2022-10-21T03:42:03.335Z,6.95
2022-10-21T03:47:04.808Z,14.13
2022-10-21T03:52:06.421Z,9.18
2022-10-21T03:57:07.962Z,10.80
2022-10-21T04:02:09.452Z,8.20
2022-10-21T04:07:10.906Z,9.63
2022-10-21T04:12:12.776Z,13.90
2022-10-21T04:17:14.359Z,10.80
2022-10-21T04:22:15.891Z,13.63
2022-10-21T04:27:17.359Z,12.77
2022-10-21T04:32:18.786Z,20.88
2022-10-21T04:37:20.254Z,16.15
2022-10-21T04:42:21.877Z,16.13
2022-10-21T04:47:23.435Z,17.75
2022-10-21T04:52:25.061Z,20.85
2022-10-21T04:57:26.731Z,14.88
2022-10-21T05:02:28.232Z,14.98
2022-10-21T05:07:29.746Z,14.20
2022-10-21T05:12:31.262Z,14.23
2022-10-21T05:17:32.742Z,18.55
2022-10-21T05:22:34.173Z,11.57
2022-10-21T05:27:35.696Z,15.40
2022-10-21T05:32:37.785Z,14.20
2022-10-21T05:37:39.653Z,13.82
2022-10-21T05:42:41.315Z,15.63
2022-10-21T05:47:43.355Z,16.27
2022-10-21T05:52:44.843Z,13.90
2022-10-21T05:57:46.645Z,19.35
2022-10-21T06:02:48.165Z,21.33
2022-10-21T06:07:49.605Z,21.42
2022-10-21T06:12:51.115Z,16.98
2022-10-21T06:17:52.637Z,12.68
2022-10-21T06:22:54.218Z,14.10
2022-10-21T06:27:55.745Z,13.85
2022-10-21T06:32:57.266Z,11.05
2022-10-21T06:37:58.820Z,17.60
2022-10-21T06:43:00.409Z,13.02
2022-10-21T06:48:02.188Z,28.17
2022-10-21T06:53:04.397Z,15.82
2022-10-21T06:58:05.890Z,11.85
2022-10-21T07:03:07.450Z,13.70
2022-10-21T07:08:11.917Z,12.57
2022-10-21T07:13:14.417Z,12.45
2022-10-21T07:18:16.003Z,14.23
2022-10-21T07:23:17.846Z,14.50
2022-10-21T07:28:19.412Z,15.73
2022-10-21T07:33:20.912Z,21.13
2022-10-21T07:38:22.986Z,20.60
2022-10-21T07:43:25.040Z,11.32
2022-10-21T07:48:26.675Z,16.30
2022-10-21T07:53:30.871Z,13.68
2022-10-21T07:58:32.840Z,9.65
2022-10-21T08:03:34.433Z,10.85
2022-10-21T08:08:36.834Z,16.90
2022-10-21T08:13:41.582Z,11.45
2022-10-21T08:18:43.451Z,11.27
2022-10-21T08:23:45.323Z,12.60
2022-10-21T08:28:47.023Z,11.93
2022-10-21T08:33:49.110Z,8.35
2022-10-21T08:38:51.126Z,11.75
2022-10-21T08:43:54.413Z,9.57
2022-10-21T08:49:06.059Z,12.68
2022-10-21T08:54:17.688Z,12.43
2022-10-21T08:59:24.916Z,15.85
2022-10-21T09:04:44.239Z,8.50
2022-10-21T09:10:07.852Z,12.13
2022-10-21T09:15:33.153Z,11.40
2022-10-21T09:20:56.004Z,13.98
2022-10-21T09:26:07.981Z,9.00
2022-10-21T09:31:17.977Z,5.97
2022-10-21T09:36:35.494Z,7.95
2022-10-21T09:41:41.454Z,7.25
2022-10-21T09:46:46.131Z,6.43
2022-10-21T09:51:49.549Z,4.85
2022-10-21T10:16:17.066Z,4.75
2022-10-21T10:21:21.121Z,3.95
2022-10-21T10:26:42.410Z,3.40
2022-10-21T10:31:51.188Z,3.20
2022-10-21T10:37:01.858Z,6.35
2022-10-21T10:42:03.638Z,8.98
2022-10-21T10:47:08.112Z,4.57
2022-10-21T10:52:09.546Z,4.60
2022-10-21T10:57:39.203Z,3.60
2022-10-21T11:03:13.655Z,5.57
2022-10-21T11:08:30.756Z,4.95
2022-10-21T11:13:38.813Z,6.53
2022-10-21T11:18:49.509Z,3.58
2022-10-21T11:24:14.371Z,3.58
2022-10-21T11:29:34.620Z,4.55
2022-10-21T11:34:48.335Z,5.88
2022-10-21T11:40:19.590Z,2.03
2022-10-21T11:45:21.588Z,7.22
2022-10-21T11:50:45.294Z,3.72
2022-10-21T11:56:17.465Z,1.58
2022-10-21T12:01:42.156Z,2.90
2022-10-21T12:07:11.194Z,7.47
2022-10-21T12:12:16.690Z,3.17
2022-10-21T12:17:20.905Z,3.30
2022-10-21T12:22:26.151Z,2.80
2022-10-21T12:27:35.362Z,3.33
2022-10-21T12:33:04.523Z,2.80
2022-10-21T12:38:21.289Z,1.25
2022-10-21T12:43:28.653Z,2.50
2022-10-21T12:48:35.591Z,2.78
2022-10-21T12:54:03.264Z,2.47
2022-10-21T12:59:07.107Z,1.98
2022-10-21T13:04:33.731Z,2.15
2022-10-21T13:09:38.419Z,3.08
2022-10-21T13:14:42.117Z,2.05
2022-10-21T13:19:44.819Z,6.07
2022-10-21T13:24:47.262Z,2.20
2022-10-21T13:35:21.553Z,2.05
2022-10-21T13:40:28.907Z,1.92
2022-10-21T13:45:36.087Z,2.53
2022-10-21T13:50:43.602Z,3.03
2022-10-21T13:56:02.899Z,1.45
2022-10-21T14:01:10.298Z,1.70
2022-10-21T14:06:18.748Z,3.28
2022-10-21T14:11:23.543Z,2.72
2022-10-21T14:16:35.664Z,3.88
2022-10-21T14:21:44.762Z,1.42
2022-10-21T14:26:46.620Z,1.52
2022-10-21T14:31:48.117Z,3.28
2022-10-21T14:37:18.313Z,2.05
2022-10-21T14:42:23.852Z,2.47
2022-10-21T14:47:27.345Z,3.13
2022-10-21T14:52:28.789Z,1.15
2022-10-21T14:57:45.194Z,1.83
2022-10-21T15:02:46.980Z,5.15
2022-10-21T15:07:48.474Z,1.88
2022-10-21T15:12:52.815Z,1.27
2022-10-21T15:18:03.948Z,1.75
2022-10-21T15:23:19.956Z,3.50
2022-10-21T15:28:23.326Z,0.95
2022-10-21T15:33:25.156Z,2.97
2022-10-21T15:38:26.592Z,2.33
2022-10-21T15:43:28.322Z,1.63
2022-10-21T15:48:29.849Z,1.75
2022-10-21T15:53:31.253Z,1.33
2022-10-21T15:58:32.696Z,4.15
2022-10-21T16:03:34.157Z,2.45
2022-10-21T16:08:35.663Z,3.03
2022-10-21T16:13:37.151Z,4.75
2022-10-21T16:18:38.587Z,8.32
2022-10-21T16:23:40.443Z,2.75
2022-10-21T16:28:42.223Z,5.55
2022-10-21T16:33:44.053Z,5.07
2022-10-21T16:38:47.098Z,3.25
2022-10-21T16:43:48.566Z,7.78
2022-10-21T16:48:50.190Z,6.65
2022-10-21T16:53:51.654Z,7.57
2022-10-21T16:58:53.673Z,11.05
2022-10-21T17:03:55.090Z,7.75
2022-10-21T17:08:57.000Z,8.15
2022-10-21T17:13:59.296Z,7.93
2022-10-21T17:19:00.734Z,7.68
2022-10-21T17:24:02.886Z,8.55
2022-10-21T17:29:04.330Z,8.45
2022-10-21T17:34:07.585Z,6.30
2022-10-21T17:39:09.119Z,10.55
2022-10-21T17:44:13.675Z,5.47
2022-10-21T17:49:15.410Z,7.00
2022-10-21T17:54:21.445Z,10.30
2022-10-21T17:59:26.748Z,15.52
2022-10-21T18:04:28.671Z,16.58
2022-10-21T18:09:30.182Z,8.75
2022-10-21T18:14:31.609Z,4.38
2022-10-21T18:19:33.924Z,6.47
2022-10-21T18:24:35.350Z,6.45
2022-10-21T18:29:36.915Z,6.25
2022-10-21T18:34:38.322Z,17.08
2022-10-21T18:39:39.802Z,12.48
2022-10-21T18:44:41.560Z,7.78
2022-10-21T18:49:43.032Z,7.68
2022-10-21T18:54:44.408Z,5.65
2022-10-21T18:59:45.879Z,3.92
2022-10-21T19:04:48.252Z,7.53
2022-10-21T19:09:49.923Z,5.05
2022-10-21T19:14:51.396Z,12.07
2022-10-21T19:19:52.999Z,10.40
2022-10-21T19:24:54.440Z,11.23
2022-10-21T19:29:55.893Z,15.90
2022-10-21T19:34:57.361Z,10.93
2022-10-21T19:39:58.899Z,9.40
2022-10-21T19:45:00.355Z,8.93
2022-10-21T19:50:02.232Z,13.20
2022-10-21T19:55:04.067Z,9.98
2022-10-21T20:00:05.920Z,13.52
2022-10-21T20:05:08.339Z,12.75
2022-10-21T20:10:09.907Z,17.42
2022-10-21T20:15:11.352Z,10.35
2022-10-21T20:20:12.806Z,10.77
2022-10-21T20:25:14.204Z,9.13
2022-10-21T20:30:15.719Z,7.78
2022-10-21T20:35:17.142Z,15.45
2022-10-21T20:40:20.365Z,10.88
2022-10-21T20:45:21.912Z,10.13
2022-10-21T20:50:23.356Z,12.43
2022-10-21T20:55:24.825Z,5.93
2022-10-21T21:00:26.292Z,8.20
2022-10-21T21:05:27.779Z,11.85
2022-10-21T21:10:30.225Z,13.70
2022-10-21T21:15:31.700Z,8.63
2022-10-21T21:20:33.126Z,4.18
2022-10-21T21:25:34.549Z,4.70
2022-10-21T21:30:35.965Z,2.55
2022-10-21T21:35:37.962Z,0.77
2022-10-21T21:40:39.470Z,0.68
2022-10-21T21:45:44.100Z,0.75
2022-10-21T21:50:46.189Z,0.32
2022-10-21T21:55:47.717Z,0.80
2022-10-21T22:00:49.121Z,3.50
2022-10-21T22:05:50.580Z,1.55
2022-10-21T22:10:52.026Z,0.88
2022-10-21T22:15:53.633Z,3.17
2022-10-21T22:20:58.462Z,3.03
2022-10-21T22:26:00.078Z,1.08
2022-10-21T22:31:13.455Z,1.70
2022-10-21T22:36:16.667Z,0.65
2022-10-21T22:41:18.294Z,1.60
2022-10-21T22:46:35.271Z,3.53
2022-10-21T22:51:36.761Z,4.18
2022-10-21T22:56:38.690Z,1.45
2022-10-21T23:01:40.107Z,1.27
2022-10-21T23:06:41.645Z,2.50
2022-10-21T23:11:43.150Z,0.75
2022-10-21T23:16:44.599Z,3.05
2022-10-21T23:21:45.987Z,2.60
2022-10-21T23:26:47.657Z,1.83
2022-10-21T23:31:49.097Z,2.08
2022-10-21T23:36:50.544Z,2.17
2022-10-21T23:41:51.975Z,3.28
2022-10-21T23:46:53.383Z,0.82
2022-10-21T23:51:54.876Z,3.40
2022-10-21T23:56:56.326Z,2.15
